Time;durP1;ratioP1;P1;durP2;ratioP2;P2;SDS_P1;SDS_P2;PMS_P1;PMS_P2;Temp;Humidity;BMP_temperature;BMP_pressure;BME280_temperature;BME280_humidity;BME280_pressure;Samples;Min_cycle;Max_cycle;Signal;HPM_P1;HPM_P2
2022/11/16 00:01:22;;;;;;;4.63;4.00;;;;;;;10.97;100.00;97759.31;5090349;28;20187;-79
2022/11/16 00:03:52;;;;;;;4.63;4.03;;;;;;;10.90;100.00;97759.00;5095271;28;20191;-80
2022/11/16 00:06:23;;;;;;;4.40;3.93;;;;;;;10.87;100.00;97749.53;5094587;28;20220;-80
2022/11/16 00:11:41;;;;;;;5.10;4.03;;;;;;;10.90;100.00;97753.72;5096034;27;20203;-80
2022/11/16 00:14:10;;;;;;;6.87;4.13;;;;;;;10.86;100.00;97750.50;5091961;28;20195;-80
2022/11/16 00:16:40;;;;;;;9.60;4.77;;;;;;;10.83;100.00;97750.78;5094926;28;20203;-79
2022/11/16 00:19:10;;;;;;;6.57;4.20;;;;;;;10.89;100.00;97747.56;5109416;28;20191;-80
2022/11/16 00:21:40;;;;;;;5.97;4.10;;;;;;;10.82;100.00;97742.97;5111016;28;20363;-80
2022/11/16 00:24:12;;;;;;;4.37;3.93;;;;;;;10.74;100.00;97753.41;5106442;28;20222;-81
2022/11/16 00:26:40;;;;;;;5.83;4.40;;;;;;;10.75;100.00;97750.63;5107545;28;20312;-80
2022/11/16 00:29:15;;;;;;;6.00;4.27;;;;;;;10.68;100.00;97748.63;5109510;28;20195;-79
2022/11/16 00:31:45;;;;;;;5.63;4.43;;;;;;;10.65;100.00;97752.38;5106647;28;20234;-79
2022/11/16 00:34:13;;;;;;;9.00;4.83;;;;;;;10.67;100.00;97742.50;5107597;28;20214;-80
2022/11/16 00:36:44;;;;;;;7.07;4.77;;;;;;;10.63;100.00;97746.38;5109985;28;20225;-80
2022/11/16 00:39:13;;;;;;;5.73;4.70;;;;;;;10.69;100.00;97752.94;5101358;28;20653;-80
2022/11/16 00:41:43;;;;;;;5.77;4.57;;;;;;;10.65;100.00;97746.25;5109752;28;20256;-80
2022/11/16 00:44:13;;;;;;;6.30;4.73;;;;;;;10.59;100.00;97748.44;5105942;28;20653;-80
2022/11/16 00:46:41;;;;;;;6.10;5.23;;;;;;;10.61;100.00;97748.31;5105874;28;20301;-80
2022/11/16 00:49:10;;;;;;;6.93;4.73;;;;;;;10.50;100.00;97754.53;5107876;28;20685;-80
2022/11/16 00:51:38;;;;;;;6.40;4.90;;;;;;;10.51;100.00;97742.13;5103585;28;20199;-79
2022/11/16 00:54:09;;;;;;;5.63;4.27;;;;;;;10.54;100.00;97739.25;5108661;28;20194;-80
2022/11/16 00:56:40;;;;;;;6.50;4.43;;;;;;;10.48;100.00;97745.91;5096681;28;20203;-80
2022/11/16 00:59:09;;;;;;;8.43;5.17;;;;;;;10.49;100.00;97746.72;5096387;27;20200;-79
2022/11/16 01:01:37;;;;;;;5.47;4.63;;;;;;;10.42;100.00;97748.22;5093947;28;20244;-79
2022/11/16 01:04:06;;;;;;;5.83;4.57;;;;;;;10.47;100.00;97753.97;5092987;28;20196;-80
2022/11/16 01:06:35;;;;;;;8.17;4.73;;;;;;;10.37;100.00;97748.63;5091638;28;20223;-80
2022/11/16 01:09:03;;;;;;;6.07;4.50;;;;;;;10.40;100.00;97753.66;5094863;28;20188;-79
2022/11/16 01:14:21;;;;;;;7.17;5.00;;;;;;;10.39;100.00;97753.78;5093894;28;20199;-80
2022/11/16 01:16:50;;;;;;;8.13;5.23;;;;;;;10.35;100.00;97760.31;5092329;28;20192;-80
2022/11/16 01:19:19;;;;;;;5.83;4.63;;;;;;;10.34;100.00;97758.66;5090994;28;20219;-80
2022/11/16 01:21:47;;;;;;;7.17;5.50;;;;;;;10.35;100.00;97757.69;5093414;28;20266;-80
2022/11/16 01:24:16;;;;;;;8.47;5.40;;;;;;;10.35;100.00;97753.22;5093591;28;20203;-79
2022/11/16 01:26:48;;;;;;;6.30;5.40;;;;;;;10.39;100.00;97748.50;5089858;28;20230;-80
2022/11/16 01:29:16;;;;;;;6.87;5.50;;;;;;;10.41;100.00;97749.19;5093641;28;20238;-80
2022/11/16 01:31:45;;;;;;;7.53;5.43;;;;;;;10.26;100.00;97751.38;5092292;28;20244;-79
2022/11/16 01:34:14;;;;;;;7.20;5.07;;;;;;;10.29;100.00;97753.75;5093581;28;20199;-80
2022/11/16 01:36:43;;;;;;;7.60;5.90;;;;;;;10.16;100.00;97751.28;5093207;28;20188;-79
2022/11/16 01:39:13;;;;;;;8.70;5.30;;;;;;;10.24;100.00;97746.22;5089581;28;20665;-80
2022/11/16 01:41:47;;;;;;;7.70;5.50;;;;;;;10.33;100.00;97749.88;5092269;28;20195;-80
2022/11/16 01:44:52;;;;;;;6.20;5.47;;;;;;;10.21;100.00;97742.94;5093543;28;20207;-80
2022/11/16 01:47:20;;;;;;;8.10;5.60;;;;;;;10.15;100.00;97754.91;5093031;28;20289;-80
2022/11/16 01:49:52;;;;;;;10.87;6.20;;;;;;;10.15;100.00;97749.59;5093206;28;20237;-81
2022/11/16 01:52:23;;;;;;;6.77;6.07;;;;;;;10.16;100.00;97743.34;5092138;28;20192;-80
2022/11/16 01:54:55;;;;;;;7.10;5.73;;;;;;;10.12;100.00;97743.72;5093276;28;20302;-80
2022/11/16 01:57:35;;;;;;;9.57;5.90;;;;;;;10.13;100.00;97743.56;5094250;28;20213;-80
2022/11/16 02:00:07;;;;;;;9.60;6.60;;;;;;;10.11;100.00;97742.88;5093484;28;20240;-79
2022/11/16 02:02:36;;;;;;;6.40;5.63;;;;;;;10.09;100.00;97736.88;5093370;28;20195;-80
2022/11/16 02:05:05;;;;;;;9.00;5.73;;;;;;;10.07;100.00;97738.00;5090762;28;20243;-80
2022/11/16 02:10:50;;;;;;;7.90;6.07;;;;;;;10.02;100.00;97747.13;5093090;28;20199;-80
2022/11/16 02:13:35;;;;;;;8.87;6.40;;;;;;;10.04;100.00;97745.22;5091479;28;20279;-79
2022/11/16 02:16:16;;;;;;;8.30;6.13;;;;;;;9.94;100.00;97738.16;5028581;28;20343;-80
2022/11/16 02:18:54;;;;;;;9.13;6.73;;;;;;;9.98;100.00;97742.25;5029491;28;20201;-80
2022/11/16 02:21:31;;;;;;;8.83;6.67;;;;;;;9.91;100.00;97739.28;5030242;28;20278;-80
2022/11/16 02:24:26;;;;;;;8.57;7.00;;;;;;;10.00;100.00;97737.66;5031401;28;20202;-80
2022/11/16 02:27:16;;;;;;;8.83;6.80;;;;;;;10.03;100.00;97729.47;5036027;28;20296;-80
2022/11/16 02:29:50;;;;;;;9.97;7.00;;;;;;;9.98;100.00;97726.38;5026070;28;20201;-80
2022/11/16 02:32:26;;;;;;;7.83;6.67;;;;;;;10.03;100.00;97729.47;5034528;28;20205;-81
2022/11/16 02:35:02;;;;;;;9.47;7.53;;;;;;;9.96;100.00;97720.38;5079245;28;20195;-81
2022/11/16 02:37:34;;;;;;;8.53;7.00;;;;;;;9.83;100.00;97715.28;5095009;28;20203;-80
2022/11/16 02:40:10;;;;;;;10.47;7.47;;;;;;;9.92;100.00;97722.44;5096841;28;20206;-80
2022/11/16 02:42:42;;;;;;;9.93;7.50;;;;;;;9.88;100.00;97720.19;5094635;28;20240;-80
2022/11/16 02:45:20;;;;;;;9.47;7.47;;;;;;;9.91;100.00;97722.56;5096517;28;20703;-81
2022/11/16 02:47:52;;;;;;;10.97;7.60;;;;;;;9.92;100.00;97721.59;5097072;27;20227;-80
2022/11/16 02:50:22;;;;;;;10.30;7.50;;;;;;;9.99;100.00;97731.53;5090507;28;20264;-80
2022/11/16 02:52:50;;;;;;;10.40;7.83;;;;;;;9.92;100.00;97717.16;5091803;28;20188;-80
2022/11/16 02:55:19;;;;;;;9.33;8.13;;;;;;;9.92;100.00;97713.66;5089151;28;20214;-81
2022/11/16 02:57:53;;;;;;;9.33;7.63;;;;;;;9.94;100.00;97719.66;5089350;28;20223;-81
2022/11/16 03:00:31;;;;;;;12.03;8.27;;;;;;;9.92;100.00;97711.84;5094421;28;20194;-81
2022/11/16 03:03:15;;;;;;;13.00;8.00;;;;;;;9.91;100.00;97710.19;5094018;28;20187;-81
2022/11/16 03:05:48;;;;;;;9.13;7.80;;;;;;;9.88;100.00;97717.53;5089317;28;20203;-81
2022/11/16 03:08:22;;;;;;;10.20;8.13;;;;;;;9.83;100.00;97727.66;5090641;28;20216;-81
2022/11/16 03:13:49;;;;;;;13.83;8.50;;;;;;;9.95;100.00;97710.78;5060149;28;20202;-81
2022/11/16 03:16:26;;;;;;;10.83;8.67;;;;;;;9.99;100.00;97712.19;5093361;28;20274;-81
2022/11/16 03:18:58;;;;;;;10.83;8.47;;;;;;;9.93;100.00;97725.91;5093845;28;20198;-81
2022/11/16 03:21:37;;;;;;;10.47;8.67;;;;;;;9.91;100.00;97719.94;5094956;28;20211;-80
2022/11/16 03:24:06;;;;;;;12.27;9.00;;;;;;;10.02;100.00;97709.28;5095924;28;20191;-81
2022/11/16 03:26:42;;;;;;;12.50;8.70;;;;;;;10.01;100.00;97716.38;5091636;28;20519;-81
2022/11/16 03:29:18;;;;;;;12.73;9.10;;;;;;;9.97;100.00;97719.41;5095471;28;20230;-80
2022/11/16 03:31:52;;;;;;;12.73;9.23;;;;;;;9.95;100.00;97714.25;5095031;28;20194;-81
2022/11/16 03:34:26;;;;;;;12.17;9.47;;;;;;;9.95;100.00;97714.25;5093387;28;20256;-81
2022/11/16 03:36:56;;;;;;;10.63;9.00;;;;;;;9.88;100.00;97717.53;5093155;28;20249;-81
2022/11/16 03:39:29;;;;;;;12.43;9.50;;;;;;;9.98;100.00;97719.28;5095604;28;20196;-81
2022/11/16 03:42:00;;;;;;;13.47;9.57;;;;;;;9.89;100.00;97714.78;5094425;28;20237;-81
2022/11/16 03:44:30;;;;;;;13.33;9.87;;;;;;;9.92;100.00;97711.03;5095936;28;20207;-81
2022/11/16 03:47:01;;;;;;;13.37;10.10;;;;;;;9.96;100.00;97717.75;5095056;28;20300;-81
2022/11/16 03:49:30;;;;;;;14.10;10.70;;;;;;;9.89;100.00;97720.06;5094465;28;20241;-81
2022/11/16 03:52:02;;;;;;;14.73;10.63;;;;;;;9.99;100.00;97715.66;5092799;28;20196;-80
2022/11/16 03:54:30;;;;;;;14.30;10.90;;;;;;;10.00;100.00;97719.97;5086878;28;20220;-82
2022/11/16 03:56:59;;;;;;;13.60;10.43;;;;;;;9.83;100.00;97723.22;5093069;28;20192;-81
2022/11/16 03:59:27;;;;;;;14.17;11.00;;;;;;;9.95;100.00;97724.84;5094259;28;20199;-81
2022/11/16 04:01:56;;;;;;;15.07;10.77;;;;;;;10.02;100.00;97717.19;5094959;28;20195;-81
2022/11/16 04:29:21;;;;;;;17.00;12.37;;;;;;;10.01;100.00;97724.31;5093545;28;20233;-81
2022/11/16 04:40:09;;;;;;;16.40;12.63;;;;;;;9.96;100.00;97745.03;5094288;28;20233;-81
2022/11/16 04:42:37;;;;;;;17.60;13.53;;;;;;;9.87;100.00;97745.81;5093117;28;20207;-81
2022/11/16 04:47:52;;;;;;;18.83;14.77;;;;;;;9.92;100.00;97745.41;5094175;28;20223;-81
2022/11/16 04:50:22;;;;;;;21.60;15.47;;;;;;;9.91;100.00;97741.06;5088926;28;20948;-81
2022/11/16 04:52:54;;;;;;;19.73;14.53;;;;;;;9.98;100.00;97748.38;5093327;28;20260;-81
2022/11/16 04:55:23;;;;;;;19.03;14.67;;;;;;;9.90;100.00;97748.19;5096537;27;20199;-81
2022/11/16 04:57:53;;;;;;;18.43;14.70;;;;;;;9.89;100.00;97743.84;5093122;28;20207;-82
2022/11/16 05:00:24;;;;;;;19.50;15.30;;;;;;;9.98;100.00;97735.16;5094222;28;20208;-82
2022/11/16 05:02:55;;;;;;;17.53;14.67;;;;;;;10.00;100.00;97746.44;5094035;28;20681;-81
2022/11/16 05:05:29;;;;;;;22.37;15.57;;;;;;;9.89;100.00;97741.22;5092725;28;20290;-81
2022/11/16 05:08:01;;;;;;;17.33;14.03;;;;;;;9.87;100.00;97739.66;5094830;28;20763;-81
2022/11/16 05:10:29;;;;;;;20.47;14.20;;;;;;;9.95;100.00;97737.22;5059198;28;20188;-81
2022/11/16 05:12:59;;;;;;;21.93;15.10;;;;;;;9.91;100.00;97730.50;5091169;28;20196;-82
2022/11/16 05:15:27;;;;;;;21.50;16.50;;;;;;;9.76;100.00;97730.00;5086769;28;20200;-81
2022/11/16 05:17:57;;;;;;;19.33;15.27;;;;;;;9.90;100.00;97737.59;5031249;28;20228;-81
2022/11/16 05:25:57;;;;;;;23.00;16.67;;;;;;;9.88;100.00;97744.00;5026091;28;20268;-82
2022/11/16 05:28:26;;;;;;;23.43;17.40;;;;;;;9.96;100.00;97742.38;5028660;28;20218;-81
2022/11/16 05:30:54;;;;;;;24.87;17.23;;;;;;;9.99;100.00;97741.28;5031201;28;20308;-81
2022/11/16 05:33:23;;;;;;;22.70;17.67;;;;;;;9.92;100.00;97751.53;5025357;28;20754;-81
2022/11/16 05:35:52;;;;;;;24.00;18.03;;;;;;;9.97;100.00;97749.34;5053426;28;20195;-81
2022/11/16 05:38:21;;;;;;;27.90;19.47;;;;;;;9.99;100.00;97760.63;5071952;28;20195;-81
2022/11/16 05:40:52;;;;;;;26.27;18.77;;;;;;;10.02;100.00;97764.81;5091267;28;20263;-80
2022/11/16 05:43:21;;;;;;;24.33;19.27;;;;;;;10.00;100.00;97758.81;5091408;28;20196;-81
2022/11/16 05:45:49;;;;;;;28.27;20.33;;;;;;;9.88;100.00;97765.16;5090846;28;20200;-82
2022/11/16 05:48:17;;;;;;;27.73;20.13;;;;;;;9.88;100.00;97765.16;5087739;28;20224;-81
2022/11/16 05:50:46;;;;;;;26.07;20.67;;;;;;;9.92;100.00;97772.69;5089716;28;20677;-81
2022/11/16 05:53:14;;;;;;;30.97;20.90;;;;;;;9.89;100.00;97767.66;5092528;28;20642;-81
2022/11/16 05:55:45;;;;;;;28.23;21.40;;;;;;;9.88;100.00;97758.06;5093466;28;20188;-81
2022/11/16 05:58:13;;;;;;;29.57;20.97;;;;;;;9.95;100.00;97761.88;5093697;28;20191;-81
2022/11/16 06:00:42;;;;;;;32.20;21.90;;;;;;;9.92;100.00;97759.47;5089804;28;20223;-81
2022/11/16 06:03:11;;;;;;;30.60;22.10;;;;;;;9.86;100.00;97765.28;5089284;28;20203;-81
2022/11/16 06:05:39;;;;;;;32.43;23.00;;;;;;;9.99;100.00;97771.22;5093174;28;20237;-81
2022/11/16 06:08:07;;;;;;;33.07;22.47;;;;;;;10.00;100.00;97772.03;5093123;28;20215;-80
2022/11/16 06:10:37;;;;;;;32.77;23.70;;;;;;;9.94;100.00;97773.41;5093080;28;20248;-81
2022/11/16 06:13:07;;;;;;;30.57;22.83;;;;;;;9.99;100.00;97778.31;5094492;28;20200;-81
2022/11/16 06:15:37;;;;;;;34.23;23.17;;;;;;;9.91;100.00;97778.94;5088519;28;20210;-81
2022/11/16 06:18:06;;;;;;;35.50;22.40;;;;;;;9.90;100.00;97782.56;5100167;28;20203;-81
2022/11/16 06:20:36;;;;;;;32.87;22.47;;;;;;;9.96;100.00;97786.50;5094085;28;20298;-81
2022/11/16 06:23:05;;;;;;;33.90;23.07;;;;;;;9.97;100.00;97777.59;5091873;28;20245;-81
2022/11/16 06:25:35;;;;;;;29.97;20.77;;;;;;;10.02;100.00;97778.03;5092516;28;20214;-81
2022/11/16 06:28:04;;;;;;;33.20;21.77;;;;;;;9.95;100.00;97784.84;5096239;28;20243;-82
2022/11/16 06:30:39;;;;;;;36.17;23.17;;;;;;;10.02;100.00;97786.81;5092424;28;20203;-82
2022/11/16 06:33:08;;;;;;;33.30;22.43;;;;;;;10.07;100.00;97789.09;5092104;28;20642;-82
2022/11/16 06:35:37;;;;;;;36.97;23.73;;;;;;;9.97;100.00;97789.03;5093085;28;20223;-82
2022/11/16 06:38:05;;;;;;;84.60;40.27;;;;;;;10.07;100.00;97796.19;5099531;28;20356;-82
2022/11/16 06:40:34;;;;;;;91.43;42.87;;;;;;;10.00;100.00;97793.22;5092687;28;20276;-81
2022/11/16 06:43:02;;;;;;;92.93;47.27;;;;;;;9.91;100.00;97804.56;5076392;28;20246;-82
2022/11/16 06:45:31;;;;;;;37.43;23.40;;;;;;;10.06;100.00;97799.81;5049445;28;20231;-81
2022/11/16 06:48:02;;;;;;;35.80;23.13;;;;;;;10.09;100.00;97800.38;5050638;28;20247;-81
2022/11/16 06:50:30;;;;;;;32.87;20.77;;;;;;;10.09;100.00;97797.72;5046295;28;20235;-81
2022/11/16 06:53:01;;;;;;;29.07;19.57;;;;;;;10.11;100.00;97800.25;5047967;28;20227;-81
2022/11/16 06:55:29;;;;;;;28.70;19.97;;;;;;;10.22;100.00;97808.13;5043087;28;20702;-81
2022/11/16 06:58:01;;;;;;;31.67;21.07;;;;;;;10.12;100.00;97810.69;5051800;28;20200;-81
2022/11/16 07:00:31;;;;;;;29.63;20.43;;;;;;;10.13;100.00;97814.16;5047888;28;20201;-82
2022/11/16 07:03:06;;;;;;;38.57;25.57;;;;;;;10.22;100.00;97813.44;5045681;28;20225;-81
2022/11/16 07:05:34;;;;;;;30.97;20.63;;;;;;;10.24;100.00;97822.94;5046656;28;20201;-80
2022/11/16 07:08:04;;;;;;;36.77;22.93;;;;;;;10.28;100.00;97823.50;5049038;28;20193;-81
2022/11/16 07:10:33;;;;;;;36.70;22.63;;;;;;;10.19;100.00;97824.25;5076040;28;20188;-82
2022/11/16 07:13:05;;;;;;;38.97;23.60;;;;;;;10.17;100.00;97828.84;5090778;28;20188;-82
2022/11/16 07:15:34;;;;;;;31.40;21.13;;;;;;;10.18;100.00;97828.69;5093661;28;20241;-82
2022/11/16 07:18:05;;;;;;;55.23;34.10;;;;;;;10.26;100.00;97834.22;5093906;28;20203;-83
2022/11/16 07:20:34;;;;;;;74.40;43.33;;;;;;;10.31;100.00;97832.03;5095813;28;20282;-82
2022/11/16 07:23:04;;;;;;;50.13;30.43;;;;;;;10.26;100.00;97834.22;5096041;28;20233;-81
2022/11/16 07:25:37;;;;;;;70.27;40.40;;;;;;;10.28;100.00;97834.94;5095553;28;20203;-82
2022/11/16 07:28:06;;;;;;;31.83;21.53;;;;;;;10.25;100.00;97831.72;5089678;28;20208;-81
2022/11/16 07:30:34;;;;;;;31.00;20.40;;;;;;;10.35;100.00;97840.56;5095792;28;20246;-81
2022/11/16 07:33:05;;;;;;;71.87;32.20;;;;;;;10.41;100.00;97847.97;5094503;28;20204;-82
2022/11/16 07:35:33;;;;;;;35.07;20.77;;;;;;;10.41;100.00;97845.31;5093057;28;20207;-81
2022/11/16 07:38:02;;;;;;;32.20;20.03;;;;;;;10.32;100.00;97835.50;5095391;28;20200;-82
2022/11/16 07:40:31;;;;;;;32.30;20.00;;;;;;;10.41;100.00;97852.41;5098291;27;20206;-82
2022/11/16 07:43:00;;;;;;;31.87;21.90;;;;;;;10.35;100.00;97856.44;5097074;27;20196;-82
2022/11/16 07:45:29;;;;;;;43.20;29.07;;;;;;;10.44;100.00;97857.47;5095531;28;20196;-81
2022/11/16 07:47:57;;;;;;;26.57;19.27;;;;;;;10.32;100.00;97852.22;5095001;28;20231;-81
2022/11/16 07:50:27;;;;;;;37.73;25.27;;;;;;;10.28;100.00;97852.63;5095153;28;20254;-81
2022/11/16 07:52:56;;;;;;;29.53;19.83;;;;;;;10.28;100.00;97861.41;5097684;27;20328;-81
2022/11/16 07:55:25;;;;;;;28.07;19.83;;;;;;;10.32;100.00;97873.38;5095520;28;20195;-81
2022/11/16 07:57:54;;;;;;;28.90;19.67;;;;;;;10.25;100.00;97872.25;5089073;28;20641;-82
2022/11/16 08:00:25;;;;;;;31.27;21.87;;;;;;;10.38;100.00;97880.00;5094913;28;20195;-81
2022/11/16 08:02:56;;;;;;;35.67;24.03;;;;;;;10.28;100.00;97882.56;5092537;28;20230;-81
2022/11/16 08:05:24;;;;;;;34.93;23.13;;;;;;;10.38;100.00;97874.69;5093875;28;20196;-81
2022/11/16 08:07:54;;;;;;;36.17;23.87;;;;;;;10.43;100.00;97890.22;5095144;28;20647;-81
2022/11/16 08:10:23;;;;;;;32.73;22.00;;;;;;;10.44;100.00;97898.03;5095018;28;20212;-81
2022/11/16 08:12:53;;;;;;;27.17;20.57;;;;;;;10.53;100.00;97899.06;5094596;28;20401;-82
2022/11/16 08:15:21;;;;;;;27.47;19.73;;;;;;;10.40;100.00;97898.38;5097519;27;20192;-81
2022/11/16 08:17:50;;;;;;;29.40;20.87;;;;;;;10.42;100.00;97901.72;5094821;28;20199;-82
2022/11/16 08:20:19;;;;;;;29.47;20.80;;;;;;;10.49;100.00;97913.50;5089336;28;20223;-82
2022/11/16 08:22:52;;;;;;;29.17;20.33;;;;;;;10.41;100.00;97905.34;5095182;28;20192;-81
2022/11/16 08:25:24;;;;;;;26.10;19.40;;;;;;;10.47;100.00;97915.44;5094441;28;20196;-81
2022/11/16 08:27:53;;;;;;;25.17;18.03;;;;;;;10.55;100.00;97907.69;5090916;28;20242;-81
2022/11/16 08:30:21;;;;;;;25.13;18.33;;;;;;;10.57;100.00;97917.19;5093794;28;20681;-81
2022/11/16 08:32:49;;;;;;;27.60;18.50;;;;;;;10.71;100.00;97907.22;5090688;28;20203;-81
2022/11/16 08:35:21;;;;;;;25.10;18.07;;;;;;;10.69;100.00;97907.38;5093621;28;20229;-82
2022/11/16 08:37:49;;;;;;;27.03;18.43;;;;;;;10.87;100.00;97912.91;5093136;28;20192;-82
2022/11/16 08:40:18;;;;;;;28.00;18.80;;;;;;;10.96;100.00;97922.72;5092771;28;20233;-82
2022/11/16 08:42:50;;;;;;;28.50;18.60;;;;;;;11.09;100.00;97906.59;4987837;28;20681;-82
2022/11/16 08:45:18;;;;;;;25.23;15.20;;;;;;;11.09;100.00;97904.78;4987980;28;20195;-81
2022/11/16 08:47:47;;;;;;;19.90;14.77;;;;;;;11.25;100.00;97904.31;4987634;28;20227;-81
2022/11/16 08:50:16;;;;;;;17.43;12.10;;;;;;;11.30;100.00;97901.28;4982904;28;20274;-81
2022/11/16 08:52:46;;;;;;;11.43;6.90;;;;;;;11.26;100.00;97908.63;4989598;28;20205;-81
2022/11/16 08:55:17;;;;;;;4.93;3.97;;;;;;;11.46;100.00;97902.44;4953159;28;20196;-82
2022/11/16 08:57:45;;;;;;;8.60;3.53;;;;;;;11.55;100.00;97899.94;4952674;28;20211;-82
2022/11/16 09:00:17;;;;;;;7.33;2.50;;;;;;;11.28;100.00;97896.09;4967714;28;20231;-80
2022/11/16 09:02:47;;;;;;;5.40;2.23;;;;;;;11.31;100.00;97893.19;4973083;28;20207;-79
2022/11/16 09:05:16;;;;;;;8.73;2.07;;;;;;;11.25;100.00;97877.81;4973228;28;20839;-81
2022/11/16 09:07:47;;;;;;;6.67;1.67;;;;;;;11.33;100.00;97870.03;5005770;28;20205;-80
2022/11/16 09:10:17;;;;;;;11.27;5.23;;;;;;;11.19;100.00;97859.78;5029345;28;20226;-82
2022/11/16 09:12:47;;;;;;;7.00;1.73;;;;;;;11.33;100.00;97858.59;4979307;28;20692;-81
2022/11/16 09:15:21;;;;;;;7.80;1.60;;;;;;;11.27;100.00;97848.53;5030413;28;20205;-81
2022/11/16 09:17:53;;;;;;;7.23;1.67;;;;;;;11.20;100.00;97840.28;5029900;28;20692;-80
2022/11/16 09:20:22;;;;;;;10.60;1.87;;;;;;;11.24;100.00;97836.38;5054031;28;20192;-81
2022/11/16 09:22:50;;;;;;;4.93;1.53;;;;;;;11.11;100.00;97841.09;5071681;28;20188;-81
2022/11/16 09:25:20;;;;;;;4.07;1.50;;;;;;;11.28;100.00;97840.44;4981433;28;20198;-81
2022/11/16 09:27:49;;;;;;;4.83;1.60;;;;;;;11.36;100.00;97842.41;5029604;28;20236;-81
2022/11/16 09:30:18;;;;;;;5.77;1.50;;;;;;;11.16;100.00;97834.41;5032734;28;20692;-80
2022/11/16 09:32:49;;;;;;;6.23;1.60;;;;;;;11.22;100.00;97838.34;5030774;28;20190;-81
2022/11/16 09:35:19;;;;;;;4.07;1.30;;;;;;;11.18;100.00;97840.41;5031460;28;20301;-81
2022/11/16 09:37:47;;;;;;;6.60;1.30;;;;;;;11.24;100.00;97835.56;5031415;28;20186;-81
2022/11/16 09:40:17;;;;;;;7.63;1.30;;;;;;;11.18;100.00;97835.09;5024282;28;20202;-80
2022/11/16 09:42:57;;;;;;;5.13;1.33;;;;;;;11.12;100.00;97834.81;5024764;28;20198;-81
2022/11/16 09:45:37;;;;;;;4.10;1.20;;;;;;;11.15;100.00;97834.53;5031213;28;20295;-81
2022/11/16 09:48:12;;;;;;;6.17;1.60;;;;;;;11.27;100.00;97830.81;5029635;28;20225;-81
2022/11/16 09:50:50;;;;;;;8.30;1.60;;;;;;;11.56;100.00;97833.53;5079459;28;20219;-81
2022/11/16 09:53:30;;;;;;;8.70;4.57;;;;;;;11.57;100.00;97829.88;5090858;28;20252;-81
2022/11/16 09:56:03;;;;;;;11.97;3.03;;;;;;;11.71;100.00;97829.50;5092375;28;20287;-81
2022/11/16 09:58:40;;;;;;;51.30;26.07;;;;;;;11.79;100.00;97825.34;5091594;28;20192;-81
2022/11/16 10:01:22;;;;;;;8.00;3.30;;;;;;;11.98;100.00;97831.53;5092488;28;20192;-81
2022/11/16 10:04:00;;;;;;;61.80;27.50;;;;;;;11.82;100.00;97828.56;5090379;28;20271;-80
2022/11/16 10:06:40;;;;;;;36.83;14.73;;;;;;;11.70;100.00;97835.78;5090154;28;20203;-80
2022/11/16 10:09:13;;;;;;;27.77;14.27;;;;;;;11.52;100.00;97831.28;5091740;28;20245;-80
2022/11/16 10:11:56;;;;;;;12.20;3.73;;;;;;;11.80;100.00;97832.34;5091230;28;20218;-81
2022/11/16 10:15:00;;;;;;;11.87;4.63;;;;;;;11.64;100.00;97840.81;5098840;28;20282;-81
2022/11/16 10:17:41;;;;;;;9.03;3.30;;;;;;;11.64;100.00;97831.03;5093174;28;20187;-81
2022/11/16 10:20:34;;;;;;;4.60;3.00;;;;;;;11.56;100.00;97833.53;5092860;28;20638;-80
2022/11/16 10:23:10;;;;;;;5.30;1.90;;;;;;;11.65;100.00;97824.75;5092668;28;20245;-81
2022/11/16 10:25:45;;;;;;;3.53;1.70;;;;;;;11.93;100.00;97823.13;5088501;28;20248;-81
2022/11/16 10:28:37;;;;;;;15.43;9.23;;;;;;;11.73;100.00;97819.59;5091231;28;20206;-80
2022/11/16 10:31:15;;;;;;;6.37;2.13;;;;;;;12.20;100.00;97810.97;5091672;28;20211;-81
2022/11/16 10:33:45;;;;;;;4.27;1.40;;;;;;;12.18;100.00;97815.59;5088235;28;20282;-80
2022/11/16 10:36:16;;;;;;;4.23;1.67;;;;;;;11.90;100.00;97818.09;5095243;28;20638;-80
2022/11/16 10:38:46;;;;;;;5.70;2.20;;;;;;;12.08;100.00;97812.09;5034339;28;20339;-81
2022/11/16 10:41:19;;;;;;;5.40;3.10;;;;;;;11.70;100.00;97806.63;5087994;28;20202;-80
2022/11/16 10:43:49;;;;;;;7.93;1.83;;;;;;;12.00;100.00;97808.31;5094887;28;20192;-80
2022/11/16 10:46:24;;;;;;;3.80;1.53;;;;;;;12.13;100.00;97801.88;5094256;28;20265;-81
2022/11/16 10:49:02;;;;;;;3.80;1.43;;;;;;;12.19;100.00;97804.00;5092092;28;20188;-81
2022/11/16 10:51:33;;;;;;;2.77;1.10;;;;;;;11.99;100.00;97805.81;5094132;28;20219;-80
2022/11/16 10:54:02;;;;;;;5.57;1.50;;;;;;;12.15;100.00;97802.56;5058591;28;20211;-81
2022/11/16 10:56:36;;;;;;;5.70;1.67;;;;;;;12.12;100.00;97792.25;5091746;28;20225;-81
2022/11/16 10:59:06;;;;;;;4.67;1.70;;;;;;;12.12;100.00;97785.13;5092132;28;20203;-81
2022/11/16 11:01:37;;;;;;;6.10;1.80;;;;;;;11.97;100.00;97786.56;5085309;28;20244;-80
2022/11/16 11:04:19;;;;;;;6.67;2.90;;;;;;;11.96;100.00;97788.34;5093744;28;20194;-81
2022/11/16 11:06:52;;;;;;;4.47;2.07;;;;;;;12.24;100.00;97788.44;5093748;28;20230;-80
2022/11/16 11:09:27;;;;;;;8.13;2.23;;;;;;;12.20;100.00;97777.28;5096049;28;20276;-81
2022/11/16 11:15:02;;;;;;;4.90;2.33;;;;;;;12.21;100.00;97776.31;5033525;28;20198;-81
2022/11/16 11:17:36;;;;;;;9.37;2.07;;;;;;;12.15;100.00;97773.38;5034037;28;20190;-81
2022/11/16 11:20:19;;;;;;;6.57;1.73;;;;;;;12.29;100.00;97765.81;5036621;28;20221;-81
2022/11/16 11:22:54;;;;;;;6.77;3.17;;;;;;;12.44;100.00;97762.69;5032830;28;20267;-80
2022/11/16 11:25:25;;;;;;;5.90;1.80;;;;;;;12.37;100.00;97767.78;5029650;28;20193;-81
2022/11/16 11:28:05;;;;;;;4.27;1.63;;;;;;;12.61;100.00;97769.91;5028828;28;20205;-81
2022/11/16 11:30:35;;;;;;;8.20;1.70;;;;;;;12.37;100.00;97764.28;5033569;28;20256;-80
2022/11/16 11:33:11;;;;;;;7.23;1.70;;;;;;;12.43;100.00;97777.78;5033425;28;20229;-80
2022/11/16 11:35:41;;;;;;;7.83;2.23;;;;;;;12.07;100.00;97774.13;5028026;28;20209;-80
2022/11/16 11:38:15;;;;;;;3.77;1.63;;;;;;;12.17;100.00;97763.47;5031042;28;20201;-80
2022/11/16 11:40:56;;;;;;;7.47;3.27;;;;;;;12.06;100.00;97764.44;5030981;28;20197;-80
2022/11/16 11:43:25;;;;;;;6.07;1.63;;;;;;;11.99;100.00;97761.53;5073680;28;20700;-81
2022/11/16 11:46:00;;;;;;;7.50;2.70;;;;;;;11.99;100.00;97755.41;5095702;28;20192;-80
2022/11/16 11:48:41;;;;;;;5.60;2.50;;;;;;;12.03;100.00;97760.28;5031352;28;20314;-80
2022/11/16 11:51:15;;;;;;;5.40;3.00;;;;;;;11.99;100.00;97750.94;5032792;28;20213;-80
2022/11/16 11:53:53;;;;;;;6.80;1.73;;;;;;;12.08;100.00;97746.59;5033104;28;20197;-79
2022/11/16 11:56:22;;;;;;;6.87;1.50;;;;;;;11.99;100.00;97747.44;4998854;28;20225;-79
2022/11/16 11:58:52;;;;;;;7.70;1.60;;;;;;;12.31;100.00;97745.28;5026271;28;20225;-79
2022/11/16 12:01:58;;;;;;;3.97;1.80;;;;;;;12.24;100.00;97746.81;5032976;28;20200;-79
2022/11/16 12:05:12;;;;;;;6.43;1.53;;;;;;;12.42;100.00;97748.72;5018114;28;20201;-79
2022/11/16 12:07:53;;;;;;;7.43;1.67;;;;;;;12.51;100.00;97743.38;5030637;28;20201;-79
2022/11/16 12:10:36;;;;;;;6.33;1.83;;;;;;;12.46;100.00;97744.81;5028845;28;20225;-79
2022/11/16 12:13:27;;;;;;;7.90;1.50;;;;;;;12.50;100.00;97738.22;5056213;28;20207;-79
2022/11/16 12:16:08;;;;;;;8.47;1.87;;;;;;;12.42;100.00;97746.06;5095107;28;20202;-82
2022/11/16 12:18:55;;;;;;;10.13;3.10;;;;;;;12.28;100.00;97742.91;5094630;28;20195;-80
2022/11/16 12:21:41;;;;;;;5.00;2.07;;;;;;;12.11;100.00;97738.34;5060029;28;20217;-80
2022/11/16 12:24:23;;;;;;;8.73;1.60;;;;;;;12.16;100.00;97730.78;5091303;28;20196;-80
2022/11/16 12:27:04;;;;;;;4.80;1.60;;;;;;;12.30;100.00;97737.44;5090833;28;20195;-79
2022/11/16 12:29:44;;;;;;;4.03;1.40;;;;;;;12.30;100.00;97737.44;5094632;28;20192;-79
2022/11/16 12:32:29;;;;;;;9.20;1.80;;;;;;;12.45;100.00;97730.72;5094559;28;20253;-79
2022/11/16 12:35:12;;;;;;;10.70;1.87;;;;;;;12.32;100.00;97728.34;5050801;28;20193;-79
2022/11/16 12:37:48;;;;;;;4.40;1.47;;;;;;;12.33;100.00;97726.53;4966997;28;20199;-79
2022/11/16 12:40:31;;;;;;;6.37;1.80;;;;;;;12.48;100.00;97726.91;4969899;28;20211;-80